Time;durP1;ratioP1;P1;durP2;ratioP2;P2;SDS_P1;SDS_P2;PMS_P1;PMS_P2;Temp;Humidity;BMP_temperature;BMP_pressure;BME280_temperature;BME280_humidity;BME280_pressure;Samples;Min_cycle;Max_cycle;Signal;HPM_P1;HPM_P2
2021/06/05 00:00:47;;;;;;;4.27;2.10;;;20.80;99.90;;;;;;5072704;28;20217;-57
2021/06/05 00:03:14;;;;;;;3.70;2.10;;;20.70;99.90;;;;;;5072706;28;20170;-57
2021/06/05 00:05:44;;;;;;;5.37;1.50;;;20.80;99.90;;;;;;5072810;28;20400;-56
2021/06/05 00:08:11;;;;;;;1.73;1.50;;;20.60;99.90;;;;;;5072640;28;20781;-52
2021/06/05 00:10:44;;;;;;;2.70;2.00;;;20.70;99.90;;;;;;5072422;28;20428;-54
2021/06/05 00:13:21;;;;;;;4.37;1.60;;;20.70;99.90;;;;;;5072816;28;20503;-57
2021/06/05 00:15:48;;;;;;;2.13;1.93;;;20.60;99.90;;;;;;5072438;28;20411;-55
2021/06/05 00:18:15;;;;;;;1.70;1.47;;;20.70;99.90;;;;;;5072817;28;20404;-55
2021/06/05 00:20:41;;;;;;;2.27;1.90;;;20.70;99.90;;;;;;5072609;28;20428;-56
2021/06/05 00:23:12;;;;;;;2.80;2.00;;;20.80;99.90;;;;;;5072050;28;20415;-55
2021/06/05 00:25:39;;;;;;;2.03;1.90;;;20.80;99.90;;;;;;5072416;28;20509;-55
2021/06/05 00:28:05;;;;;;;2.87;2.40;;;20.80;99.90;;;;;;5072641;28;20430;-55
2021/06/05 00:30:31;;;;;;;5.53;2.67;;;20.80;99.90;;;;;;5054382;28;20515;-56
2021/06/05 00:32:57;;;;;;;9.63;3.03;;;20.70;99.90;;;;;;5072594;28;20481;-57
2021/06/05 00:35:25;;;;;;;4.97;3.73;;;20.60;99.90;;;;;;5072460;28;20474;-54
2021/06/05 00:37:51;;;;;;;3.83;3.17;;;20.50;99.90;;;;;;5072611;28;20795;-57
2021/06/05 00:40:19;;;;;;;7.50;4.30;;;20.30;99.90;;;;;;5072293;28;20516;-56
2021/06/05 00:42:46;;;;;;;8.43;4.47;;;20.10;99.90;;;;;;5072566;28;20178;-56
2021/06/05 00:45:13;;;;;;;3.40;3.10;;;20.00;99.90;;;;;;5072554;28;20419;-54
2021/06/05 00:47:39;;;;;;;5.57;3.53;;;20.10;99.90;;;;;;5072304;28;20881;-57
2021/06/05 00:50:07;;;;;;;3.00;2.23;;;20.00;99.90;;;;;;5074500;28;20420;-55
2021/06/05 00:52:34;;;;;;;2.60;2.40;;;20.10;99.90;;;;;;5076069;28;20227;-56
2021/06/05 00:55:01;;;;;;;3.30;2.20;;;20.10;99.90;;;;;;5075938;28;20416;-55
2021/06/05 00:57:27;;;;;;;2.93;2.00;;;19.90;99.90;;;;;;5075786;28;20448;-57
2021/06/05 00:59:52;;;;;;;3.00;1.70;;;19.80;99.90;;;;;;5076210;28;20407;-56
2021/06/05 01:02:18;;;;;;;3.33;1.70;;;19.30;99.90;;;;;;5075959;28;20158;-56
2021/06/05 01:04:44;;;;;;;2.50;2.30;;;19.30;99.90;;;;;;5076341;28;20162;-56
2021/06/05 01:07:16;;;;;;;4.20;1.97;;;19.40;99.90;;;;;;5075981;28;20545;-55
2021/06/05 01:10:17;;;;;;;3.23;1.97;;;19.60;99.90;;;;;;5056323;28;20411;-56
2021/06/05 01:13:02;;;;;;;1.83;1.53;;;19.60;99.90;;;;;;5032385;28;20420;-56
2021/06/05 01:15:40;;;;;;;3.10;2.10;;;19.50;99.90;;;;;;5055883;28;20424;-56
2021/06/05 01:18:11;;;;;;;4.17;1.53;;;19.40;99.90;;;;;;5055527;28;20459;-57
2021/06/05 01:21:04;;;;;;;1.60;1.43;;;19.50;99.90;;;;;;5055766;28;20421;-56
2021/06/05 01:23:51;;;;;;;4.97;2.17;;;19.60;99.90;;;;;;5055929;28;20474;-56
2021/06/05 01:26:34;;;;;;;2.80;1.50;;;19.40;99.90;;;;;;5055703;28;20409;-55
2021/06/05 01:29:07;;;;;;;2.37;2.00;;;19.30;99.90;;;;;;5055446;28;20397;-56
2021/06/05 01:31:37;;;;;;;1.60;1.50;;;19.30;99.90;;;;;;5055670;28;20523;-57
2021/06/05 01:34:04;;;;;;;1.73;1.60;;;19.40;99.90;;;;;;5055753;28;20413;-56
2021/06/05 01:36:30;;;;;;;2.30;1.67;;;19.30;99.90;;;;;;5055483;28;20491;-55
2021/06/05 01:38:58;;;;;;;2.17;1.77;;;19.30;99.90;;;;;;5055427;28;20402;-56
2021/06/05 01:41:26;;;;;;;2.63;1.90;;;19.30;99.90;;;;;;5056092;28;20200;-55
2021/06/05 01:43:53;;;;;;;2.93;1.70;;;19.40;99.90;;;;;;5056170;28;20470;-55
2021/06/05 01:46:25;;;;;;;2.87;1.80;;;19.50;99.90;;;;;;5055716;28;20409;-55
2021/06/05 01:48:53;;;;;;;1.73;1.60;;;19.30;99.90;;;;;;5055723;28;20389;-56
2021/06/05 01:51:19;;;;;;;2.80;1.80;;;19.40;99.90;;;;;;5055248;28;20441;-55
2021/06/05 01:53:55;;;;;;;2.80;1.97;;;19.60;99.90;;;;;;5055633;28;20417;-53
2021/06/05 01:56:31;;;;;;;1.90;1.73;;;19.60;99.90;;;;;;5055436;28;20518;-51
2021/06/05 01:58:58;;;;;;;1.40;1.30;;;19.40;99.90;;;;;;5055636;28;20385;-55
2021/06/05 02:01:24;;;;;;;2.13;1.60;;;19.40;99.90;;;;;;5101923;22;21058;-59
2021/06/05 02:03:50;;;;;;;2.40;1.50;;;19.60;99.90;;;;;;5095348;28;20482;-59
2021/06/05 02:06:17;;;;;;;2.77;1.10;;;19.60;99.90;;;;;;5095397;28;20391;-59
2021/06/05 02:08:43;;;;;;;1.90;1.50;;;19.50;99.90;;;;;;5095365;28;20395;-59
2021/06/05 02:11:15;;;;;;;1.70;1.20;;;19.50;99.90;;;;;;5095433;28;20476;-59
2021/06/05 02:13:55;;;;;;;1.47;1.33;;;19.60;99.90;;;;;;5095758;28;20249;-59
2021/06/05 02:16:29;;;;;;;1.30;1.20;;;19.90;99.90;;;;;;5095695;28;20504;-59
2021/06/05 02:19:00;;;;;;;3.93;1.33;;;20.00;99.90;;;;;;5095686;28;20482;-59
2021/06/05 02:21:30;;;;;;;1.43;1.33;;;19.80;99.90;;;;;;5094959;28;20419;-57
2021/06/05 02:24:01;;;;;;;2.17;1.30;;;19.80;99.90;;;;;;5095346;28;20406;-59
2021/06/05 02:26:28;;;;;;;1.90;1.40;;;19.70;99.90;;;;;;5095002;28;20436;-59
2021/06/05 02:28:57;;;;;;;3.00;1.20;;;19.50;99.90;;;;;;5095503;28;20399;-59
2021/06/05 02:31:25;;;;;;;1.90;1.43;;;19.60;99.90;;;;;;5095134;28;20424;-59
2021/06/05 02:33:51;;;;;;;2.80;1.60;;;19.70;99.90;;;;;;5094905;28;20896;-59
2021/06/05 02:36:17;;;;;;;2.90;1.60;;;19.70;99.90;;;;;;5095111;28;20450;-59
2021/06/05 02:38:46;;;;;;;1.53;1.30;;;19.80;99.90;;;;;;5094733;28;20541;-58
2021/06/05 02:41:15;;;;;;;1.50;1.40;;;19.80;99.90;;;;;;5076458;28;20522;-58
2021/06/05 02:43:43;;;;;;;1.80;1.53;;;19.70;99.90;;;;;;5094560;28;20912;-59
2021/06/05 02:46:17;;;;;;;2.20;1.70;;;19.70;99.90;;;;;;5094845;28;20888;-59
2021/06/05 02:48:51;;;;;;;2.60;1.43;;;19.70;99.90;;;;;;5094897;28;20383;-56
2021/06/05 02:51:20;;;;;;;1.97;1.50;;;19.70;99.90;;;;;;5094426;28;20426;-58
2021/06/05 02:53:46;;;;;;;3.00;1.43;;;19.70;99.90;;;;;;5094476;28;20778;-57
2021/06/05 02:56:12;;;;;;;2.10;1.30;;;19.50;99.90;;;;;;5094328;28;20529;-59
2021/06/05 02:58:39;;;;;;;1.70;1.23;;;19.50;99.90;;;;;;5094698;28;20237;-59
2021/06/05 03:01:07;;;;;;;1.63;1.17;;;19.60;99.90;;;;;;5094274;28;20467;-59
2021/06/05 03:03:33;;;;;;;2.17;1.10;;;19.70;99.90;;;;;;5076192;28;20415;-59
2021/06/05 03:05:59;;;;;;;4.33;1.53;;;19.60;99.90;;;;;;5094477;28;20951;-58
2021/06/05 03:08:27;;;;;;;1.50;1.30;;;19.70;99.90;;;;;;5094261;28;20430;-59
2021/06/05 03:10:54;;;;;;;1.20;1.10;;;19.80;99.90;;;;;;5094087;28;20181;-59
2021/06/05 03:13:21;;;;;;;1.90;1.70;;;19.80;99.90;;;;;;5093161;28;20395;-56
2021/06/05 03:15:47;;;;;;;2.33;1.50;;;19.80;99.90;;;;;;5094086;28;20486;-59
2021/06/05 03:18:15;;;;;;;1.30;1.20;;;19.70;99.90;;;;;;5093959;28;20446;-59
2021/06/05 03:20:44;;;;;;;3.07;1.57;;;19.40;99.90;;;;;;5094111;28;20419;-59
2021/06/05 03:23:11;;;;;;;1.63;1.20;;;19.40;99.90;;;;;;5094273;28;20414;-59
2021/06/05 03:25:38;;;;;;;2.90;1.60;;;19.40;99.90;;;;;;5094222;28;20399;-58
2021/06/05 03:28:05;;;;;;;1.77;1.43;;;19.50;99.90;;;;;;5094088;28;20508;-58
2021/06/05 03:30:31;;;;;;;1.67;1.33;;;19.70;99.90;;;;;;5075717;28;20568;-59
2021/06/05 03:32:57;;;;;;;1.73;1.30;;;19.80;99.90;;;;;;5076106;28;20491;-58
2021/06/05 03:35:23;;;;;;;2.30;1.83;;;19.90;99.90;;;;;;5094200;28;20537;-58
2021/06/05 03:37:49;;;;;;;2.10;1.17;;;19.90;99.90;;;;;;5093821;28;20542;-58
2021/06/05 03:40:19;;;;;;;1.60;1.50;;;19.90;99.90;;;;;;5093712;28;20899;-56
2021/06/05 03:42:45;;;;;;;2.03;1.60;;;19.80;99.90;;;;;;5093647;28;20883;-58
2021/06/05 03:45:11;;;;;;;4.23;1.60;;;19.90;99.90;;;;;;5093880;28;20487;-57
2021/06/05 03:47:38;;;;;;;3.23;1.53;;;20.00;99.90;;;;;;5093599;28;20460;-57
2021/06/05 03:50:05;;;;;;;2.10;1.40;;;20.00;99.90;;;;;;5094679;28;20403;-59
2021/06/05 03:52:31;;;;;;;2.30;1.30;;;19.90;99.90;;;;;;5094883;28;20537;-58
2021/06/05 03:54:56;;;;;;;2.30;1.50;;;19.80;99.90;;;;;;5076803;28;20779;-59
2021/06/05 03:57:24;;;;;;;3.03;1.60;;;19.80;99.90;;;;;;5095361;28;20184;-59
2021/06/05 03:59:54;;;;;;;1.73;1.43;;;19.90;99.90;;;;;;5095302;28;20690;-59
2021/06/05 04:02:21;;;;;;;2.70;1.80;;;19.80;99.90;;;;;;5093600;28;20435;-58
2021/06/05 04:04:46;;;;;;;2.43;1.60;;;19.60;99.90;;;;;;5093642;28;20737;-59
2021/06/05 04:07:12;;;;;;;6.67;1.63;;;19.50;99.90;;;;;;5095436;28;20544;-59
2021/06/05 04:09:40;;;;;;;1.90;1.43;;;19.20;99.90;;;;;;5095605;28;20196;-59
2021/06/05 04:12:07;;;;;;;5.10;1.50;;;19.10;99.90;;;;;;5096030;28;20422;-59
2021/06/05 04:14:33;;;;;;;2.80;1.70;;;19.10;99.90;;;;;;5095955;28;20513;-58
2021/06/05 04:17:00;;;;;;;4.20;1.53;;;19.20;99.90;;;;;;5095789;28;20451;-58
2021/06/05 04:19:25;;;;;;;2.87;1.93;;;19.40;99.90;;;;;;5096158;28;20395;-58
2021/06/05 04:21:53;;;;;;;4.90;2.07;;;19.50;99.90;;;;;;5094133;28;20477;-57
2021/06/05 04:24:20;;;;;;;1.80;1.50;;;19.50;99.90;;;;;;5094432;28;20187;-57
2021/06/05 04:26:45;;;;;;;3.53;1.77;;;19.50;99.90;;;;;;5098343;28;20399;-57
2021/06/05 04:29:11;;;;;;;4.13;1.50;;;19.40;99.90;;;;;;5097920;28;20472;-57
2021/06/05 04:31:37;;;;;;;2.17;1.50;;;19.40;99.90;;;;;;5097864;28;20613;-57
2021/06/05 04:34:03;;;;;;;3.27;1.60;;;19.30;99.90;;;;;;5099160;28;20180;-57
2021/06/05 04:36:28;;;;;;;2.43;1.20;;;19.40;99.90;;;;;;5099539;28;20196;-59
2021/06/05 04:38:54;;;;;;;1.63;1.40;;;19.30;99.90;;;;;;5100429;28;20214;-59
2021/06/05 04:41:21;;;;;;;2.47;1.47;;;19.40;99.90;;;;;;5098147;28;20264;-58
2021/06/05 04:43:47;;;;;;;2.60;1.40;;;19.50;99.90;;;;;;5097898;28;20498;-58
2021/06/05 04:46:14;;;;;;;2.23;1.50;;;19.40;99.90;;;;;;5097264;28;20406;-59
2021/06/05 04:48:41;;;;;;;2.17;1.57;;;19.40;99.90;;;;;;5097348;28;20399;-59
2021/06/05 04:51:07;;;;;;;2.30;1.80;;;19.40;99.90;;;;;;5096862;28;20442;-59
2021/06/05 04:53:34;;;;;;;2.23;1.53;;;19.40;99.90;;;;;;5079272;28;20407;-59
2021/06/05 04:56:00;;;;;;;2.63;1.97;;;19.50;99.90;;;;;;5097535;28;20983;-58
2021/06/05 04:58:26;;;;;;;3.90;1.10;;;19.50;99.90;;;;;;5096932;28;20403;-58
2021/06/05 05:00:53;;;;;;;1.47;1.23;;;19.60;99.90;;;;;;5096561;28;20473;-59
2021/06/05 05:03:22;;;;;;;2.53;1.47;;;19.70;99.90;;;;;;5097045;28;20168;-59
2021/06/05 05:05:49;;;;;;;2.30;1.33;;;19.90;99.90;;;;;;5096986;28;20410;-59
2021/06/05 05:08:16;;;;;;;2.60;1.40;;;19.90;99.90;;;;;;5096867;28;20410;-58
2021/06/05 05:10:45;;;;;;;2.20;1.30;;;20.00;99.90;;;;;;5096798;28;20505;-59
2021/06/05 05:13:13;;;;;;;1.97;1.20;;;20.00;99.90;;;;;;5097196;28;20411;-59
2021/06/05 05:15:40;;;;;;;1.70;1.60;;;20.00;99.90;;;;;;5096629;28;20773;-57
2021/06/05 05:18:06;;;;;;;1.67;1.20;;;20.10;99.90;;;;;;5096764;28;20454;-59
2021/06/05 05:20:34;;;;;;;2.47;1.70;;;20.10;99.90;;;;;;5096688;28;20423;-59
2021/06/05 05:23:00;;;;;;;2.50;1.60;;;20.20;99.90;;;;;;5096292;28;20252;-58
2021/06/05 05:25:27;;;;;;;2.67;1.50;;;20.10;99.90;;;;;;5096555;28;20400;-58
2021/06/05 05:27:53;;;;;;;2.80;1.20;;;20.10;99.90;;;;;;5096369;28;20403;-58
2021/06/05 05:30:31;;;;;;;2.90;1.37;;;20.10;99.90;;;;;;5096283;28;20426;-59
2021/06/05 05:32:57;;;;;;;2.23;1.47;;;20.10;99.90;;;;;;5096335;28;20150;-59
2021/06/05 05:35:23;;;;;;;1.37;1.27;;;20.20;99.90;;;;;;5095594;28;20755;-59
2021/06/05 05:37:49;;;;;;;4.57;1.47;;;20.20;99.90;;;;;;5077309;28;20197;-59
2021/06/05 05:40:16;;;;;;;2.40;1.50;;;20.30;99.90;;;;;;5095941;28;20769;-59
2021/06/05 05:42:42;;;;;;;3.27;1.53;;;20.40;99.90;;;;;;5095995;28;20157;-59
2021/06/05 05:45:08;;;;;;;1.80;1.30;;;20.60;99.90;;;;;;5095900;28;20471;-59
2021/06/05 05:47:35;;;;;;;1.90;1.30;;;20.50;99.90;;;;;;5096090;28;20169;-58
2021/06/05 05:50:01;;;;;;;3.37;1.53;;;20.60;99.90;;;;;;5096035;28;20778;-58
2021/06/05 05:52:26;;;;;;;2.33;1.30;;;20.70;99.90;;;;;;5096198;28;20426;-58
2021/06/05 05:54:52;;;;;;;2.20;1.67;;;20.90;99.90;;;;;;5096204;28;20399;-56
2021/06/05 05:57:17;;;;;;;2.57;1.47;;;20.90;99.90;;;;;;5095813;28;20193;-58
2021/06/05 05:59:43;;;;;;;2.00;1.80;;;21.10;99.90;;;;;;5095695;28;20658;-59
2021/06/05 06:02:09;;;;;;;1.97;1.40;;;21.10;99.90;;;;;;5095427;28;20201;-59
2021/06/05 06:04:34;;;;;;;1.20;1.10;;;21.00;99.90;;;;;;5095861;28;20194;-59
2021/06/05 06:07:00;;;;;;;3.40;1.70;;;21.10;99.90;;;;;;5095397;28;20279;-59
2021/06/05 06:09:25;;;;;;;2.33;1.30;;;21.20;99.90;;;;;;5095676;28;20223;-58
2021/06/05 06:11:51;;;;;;;2.30;1.63;;;21.40;99.90;;;;;;5095724;28;20553;-59
2021/06/05 06:14:17;;;;;;;1.77;1.50;;;21.50;99.90;;;;;;5095417;28;20173;-57
2021/06/05 06:16:43;;;;;;;2.27;1.60;;;21.60;99.90;;;;;;5095312;28;20204;-58
2021/06/05 06:19:12;;;;;;;2.03;1.70;;;21.60;99.90;;;;;;5095701;28;20253;-59
2021/06/05 06:21:39;;;;;;;2.10;1.43;;;21.40;99.90;;;;;;5095413;28;20426;-58
2021/06/05 06:24:05;;;;;;;2.60;1.60;;;21.60;99.90;;;;;;5095332;28;20396;-59
2021/06/05 06:26:31;;;;;;;2.43;1.60;;;21.80;99.90;;;;;;5095370;28;20791;-57
2021/06/05 06:29:07;;;;;;;3.30;1.80;;;21.60;99.90;;;;;;5095194;28;20510;-58
2021/06/05 06:31:33;;;;;;;2.43;1.40;;;21.50;99.90;;;;;;5095393;28;20458;-57
2021/06/05 06:33:58;;;;;;;1.43;1.30;;;21.30;99.90;;;;;;5095418;28;20473;-58
2021/06/05 06:36:25;;;;;;;1.73;1.50;;;21.40;99.90;;;;;;5094598;28;20639;-59
2021/06/05 06:38:51;;;;;;;2.50;1.53;;;21.60;99.90;;;;;;5094848;28;20208;-57
2021/06/05 06:41:24;;;;;;;3.20;1.57;;;22.00;99.90;;;;;;5095015;28;20420;-59
2021/06/05 06:43:50;;;;;;;1.70;1.60;;;22.10;99.90;;;;;;5095071;28;20392;-59
2021/06/05 06:46:21;;;;;;;2.90;1.67;;;22.00;99.90;;;;;;5094636;28;20400;-59
2021/06/05 06:48:48;;;;;;;2.73;1.50;;;22.00;99.90;;;;;;5094860;28;20467;-57
2021/06/05 06:51:14;;;;;;;1.50;1.30;;;22.20;99.90;;;;;;5094515;28;20444;-58
2021/06/05 06:53:40;;;;;;;2.70;1.60;;;22.50;99.90;;;;;;5076342;28;20415;-58
2021/06/05 06:56:06;;;;;;;3.43;1.30;;;22.50;99.90;;;;;;5091730;28;20172;-58
2021/06/05 06:58:33;;;;;;;2.10;1.17;;;22.60;99.90;;;;;;5094361;28;20335;-59
2021/06/05 07:00:59;;;;;;;2.63;1.70;;;22.80;99.90;;;;;;5094167;28;20445;-59
2021/06/05 07:03:25;;;;;;;1.20;1.10;;;22.90;99.90;;;;;;5094674;28;20487;-58
2021/06/05 07:05:51;;;;;;;2.90;2.33;;;23.20;99.90;;;;;;5094718;28;20482;-58
2021/06/05 07:08:20;;;;;;;1.37;1.27;;;23.30;99.90;;;;;;5094587;28;20180;-55
2021/06/05 07:10:48;;;;;;;1.33;1.23;;;23.10;99.90;;;;;;5094955;28;20192;-59
2021/06/05 07:13:14;;;;;;;3.43;1.40;;;23.40;99.90;;;;;;5094331;28;20448;-59
2021/06/05 07:15:40;;;;;;;2.03;1.83;;;23.50;99.90;;;;;;5093927;28;20855;-59
2021/06/05 07:18:08;;;;;;;1.50;1.10;;;23.60;99.90;;;;;;5093894;28;20541;-60
2021/06/05 07:20:34;;;;;;;1.63;1.40;;;23.10;99.90;;;;;;5094279;28;20189;-59
2021/06/05 07:23:00;;;;;;;2.77;1.60;;;23.40;99.90;;;;;;5087963;28;20415;-59
2021/06/05 07:25:27;;;;;;;1.73;1.13;;;23.50;99.90;;;;;;5081950;28;20404;-59
2021/06/05 07:27:54;;;;;;;3.60;1.43;;;23.70;99.90;;;;;;5074352;28;20170;-57
2021/06/05 07:30:20;;;;;;;1.63;1.30;;;23.90;99.90;;;;;;5073498;28;20421;-59
2021/06/05 07:32:45;;;;;;;1.57;1.07;;;23.80;99.90;;;;;;5073586;28;20400;-55
2021/06/05 07:35:11;;;;;;;4.43;1.50;;;23.80;99.90;;;;;;5055656;28;20170;-55
2021/06/05 07:37:37;;;;;;;1.30;1.20;;;24.00;99.90;;;;;;5073279;28;20197;-55
2021/06/05 07:40:07;;;;;;;2.27;1.93;;;24.10;99.90;;;;;;5073508;28;20196;-57
2021/06/05 07:42:35;;;;;;;1.70;1.20;;;24.10;99.90;;;;;;5073559;28;20410;-57
2021/06/05 07:45:00;;;;;;;3.33;1.43;;;24.20;99.90;;;;;;5073286;28;20409;-53
2021/06/05 07:47:26;;;;;;;2.10;1.30;;;24.50;99.90;;;;;;5073355;28;20496;-54
2021/06/05 07:49:52;;;;;;;5.70;3.60;;;24.70;99.90;;;;;;5073404;28;20178;-57
2021/06/05 07:52:23;;;;;;;3.40;1.43;;;24.80;99.90;;;;;;5073043;28;20189;-59
2021/06/05 07:54:51;;;;;;;3.00;2.20;;;24.50;99.90;;;;;;5072990;28;20619;-59
2021/06/05 07:57:17;;;;;;;2.10;1.70;;;24.30;99.90;;;;;;5073020;28;20448;-57
2021/06/05 07:59:43;;;;;;;2.57;1.37;;;24.30;99.90;;;;;;5092282;28;20412;-59
2021/06/05 08:02:10;;;;;;;3.37;1.87;;;24.40;99.90;;;;;;5104624;22;20570;-52
2021/06/05 08:04:35;;;;;;;2.40;1.70;;;24.30;99.90;;;;;;5057727;28;20166;-53
2021/06/05 08:07:01;;;;;;;3.17;1.77;;;24.40;99.90;;;;;;5075811;28;20396;-56
2021/06/05 08:09:26;;;;;;;3.40;2.03;;;24.60;99.90;;;;;;5075511;28;20197;-53
2021/06/05 08:11:52;;;;;;;1.40;1.20;;;24.60;99.90;;;;;;5072934;28;20243;-56
2021/06/05 08:14:18;;;;;;;2.40;1.70;;;24.20;99.90;;;;;;5073074;28;20177;-56
2021/06/05 08:16:43;;;;;;;1.90;1.70;;;24.00;99.90;;;;;;5073124;28;20694;-56
2021/06/05 08:19:12;;;;;;;1.70;1.60;;;24.20;99.90;;;;;;5073034;28;20173;-56
2021/06/05 08:21:43;;;;;;;3.00;1.50;;;24.30;99.90;;;;;;5072710;28;20193;-56
2021/06/05 08:24:13;;;;;;;4.33;1.60;;;24.30;99.90;;;;;;5073239;28;20404;-56
2021/06/05 08:26:39;;;;;;;1.90;1.73;;;24.40;99.90;;;;;;5072811;28;20404;-52
2021/06/05 08:29:05;;;;;;;2.17;1.70;;;24.10;99.90;;;;;;5072178;28;20881;-56
2021/06/05 08:31:30;;;;;;;3.37;1.47;;;24.00;99.90;;;;;;5072902;28;20489;-56
2021/06/05 08:33:57;;;;;;;1.93;1.63;;;24.00;99.90;;;;;;5072763;28;20178;-56
2021/06/05 08:36:26;;;;;;;1.83;1.70;;;24.10;99.90;;;;;;5072454;28;20202;-56
2021/06/05 08:38:52;;;;;;;1.50;1.30;;;24.00;99.90;;;;;;5072380;28;20476;-54
2021/06/05 08:41:33;;;;;;;2.43;1.63;;;24.20;99.90;;;;;;5072501;28;20989;-55
2021/06/05 08:44:06;;;;;;;1.70;1.47;;;24.30;99.90;;;;;;5072625;28;20479;-53
2021/06/05 08:46:51;;;;;;;3.00;1.87;;;24.40;99.90;;;;;;5072442;28;20857;-55
2021/06/05 08:49:28;;;;;;;3.27;1.57;;;24.40;99.90;;;;;;5072678;28;20388;-56
2021/06/05 08:52:12;;;;;;;1.50;1.40;;;24.40;99.90;;;;;;5072331;28;20416;-54
2021/06/05 08:54:40;;;;;;;2.30;1.40;;;24.30;99.90;;;;;;5072496;28;20428;-55
2021/06/05 08:57:10;;;;;;;1.50;1.30;;;24.10;99.90;;;;;;5072445;28;20448;-54
2021/06/05 08:59:36;;;;;;;1.40;1.30;;;24.00;99.90;;;;;;5072355;28;20404;-56
2021/06/05 09:02:02;;;;;;;2.40;1.50;;;23.60;99.90;;;;;;5071913;28;20432;-55
2021/06/05 09:04:30;;;;;;;2.50;1.57;;;23.70;99.90;;;;;;5072094;28;20163;-55
2021/06/05 09:07:08;;;;;;;2.50;1.90;;;24.00;99.90;;;;;;5072379;28;20900;-56
2021/06/05 09:09:40;;;;;;;2.67;1.60;;;24.10;99.90;;;;;;5072123;28;20444;-56
2021/06/05 09:12:08;;;;;;;1.60;1.50;;;23.60;99.90;;;;;;5075465;28;20452;-54
2021/06/05 09:14:34;;;;;;;2.10;1.80;;;23.80;99.90;;;;;;5075830;28;20404;-57
2021/06/05 09:17:12;;;;;;;3.87;1.70;;;24.00;99.90;;;;;;5076063;28;20987;-54
2021/06/05 09:19:37;;;;;;;1.53;1.43;;;24.20;99.90;;;;;;5076801;28;20596;-55
2021/06/05 09:22:05;;;;;;;2.93;1.87;;;24.30;99.90;;;;;;5075550;28;20444;-57
2021/06/05 09:24:44;;;;;;;2.17;1.50;;;24.30;99.90;;;;;;5075524;28;20162;-52
2021/06/05 09:27:09;;;;;;;1.50;1.30;;;24.40;99.90;;;;;;5075665;28;20762;-57
2021/06/05 09:29:53;;;;;;;2.10;1.43;;;24.50;99.90;;;;;;5075615;28;20400;-56
2021/06/05 09:32:22;;;;;;;1.80;1.60;;;24.50;99.90;;;;;;5075884;28;20190;-53
2021/06/05 09:34:52;;;;;;;3.30;2.00;;;24.50;99.90;;;;;;5075394;28;20400;-52
2021/06/05 09:37:35;;;;;;;1.67;1.30;;;24.40;99.90;;;;;;5075440;28;20443;-55
2021/06/05 09:40:16;;;;;;;2.70;2.30;;;24.40;99.90;;;;;;5075468;28;20407;-57
2021/06/05 09:42:44;;;;;;;2.33;1.57;;;24.30;99.90;;;;;;5075074;28;20987;-55
2021/06/05 09:45:28;;;;;;;1.30;1.20;;;24.10;99.90;;;;;;5075103;28;20461;-56
2021/06/05 09:48:16;;;;;;;2.50;1.70;;;24.10;99.90;;;;;;5075157;28;20411;-57
2021/06/05 09:50:45;;;;;;;1.97;1.40;;;24.30;99.90;;;;;;5075263;28;20806;-53
2021/06/05 09:53:29;;;;;;;2.23;1.90;;;24.30;99.90;;;;;;5074563;28;20904;-55
2021/06/05 09:55:55;;;;;;;2.10;1.97;;;24.20;99.90;;;;;;5075246;28;20480;-55
2021/06/05 09:58:34;;;;;;;3.03;2.13;;;24.00;99.90;;;;;;5074811;28;20822;-54
2021/06/05 10:01:12;;;;;;;4.67;2.47;;;24.20;99.90;;;;;;5074694;28;20439;-57
2021/06/05 10:03:38;;;;;;;1.77;1.40;;;24.20;99.90;;;;;;5077422;28;20380;-54
2021/06/05 10:06:36;;;;;;;4.27;1.83;;;23.70;99.90;;;;;;5074771;28;20397;-57
2021/06/05 10:09:24;;;;;;;4.70;1.60;;;23.70;99.90;;;;;;5074666;28;20155;-56
2021/06/05 10:11:53;;;;;;;4.20;3.90;;;23.40;99.90;;;;;;5060407;28;20468;-56
2021/06/05 10:14:29;;;;;;;2.77;1.80;;;23.50;99.90;;;;;;5074724;28;20407;-55
2021/06/05 10:17:02;;;;;;;1.30;1.20;;;23.80;99.90;;;;;;5068232;28;20505;-55
2021/06/05 10:19:39;;;;;;;1.83;1.57;;;23.80;99.90;;;;;;5054461;28;20441;-55
2021/06/05 10:22:07;;;;;;;1.67;1.50;;;23.60;99.90;;;;;;5053937;28;20421;-55
2021/06/05 10:24:57;;;;;;;1.87;1.57;;;23.80;99.90;;;;;;5054592;28;20451;-56
2021/06/05 10:27:36;;;;;;;1.70;1.60;;;24.20;99.90;;;;;;5054231;28;20405;-56
2021/06/05 10:30:28;;;;;;;2.13;1.60;;;24.10;99.90;;;;;;5054651;28;20451;-56
2021/06/05 10:32:56;;;;;;;1.83;1.60;;;24.10;99.90;;;;;;5054687;28;20382;-57
2021/06/05 10:35:29;;;;;;;1.87;1.50;;;24.60;99.90;;;;;;5054459;28;20404;-57
2021/06/05 10:38:09;;;;;;;1.90;1.53;;;24.90;99.90;;;;;;5054135;28;20512;-55
2021/06/05 10:40:36;;;;;;;2.53;1.90;;;25.00;99.90;;;;;;5054308;28;20760;-55
2021/06/05 10:43:06;;;;;;;3.77;1.63;;;25.00;99.90;;;;;;5054147;28;20397;-57
2021/06/05 10:45:37;;;;;;;2.60;2.10;;;25.20;99.90;;;;;;5054064;28;20393;-56
2021/06/05 10:48:31;;;;;;;4.53;2.00;;;24.90;99.90;;;;;;5053920;28;20397;-56
2021/06/05 10:51:17;;;;;;;4.10;1.90;;;24.50;99.90;;;;;;5054033;28;20438;-57
2021/06/05 10:54:05;;;;;;;1.83;1.73;;;24.30;99.90;;;;;;5053858;28;20416;-56
2021/06/05 10:56:49;;;;;;;2.10;1.70;;;24.00;99.90;;;;;;5054036;28;20448;-54
2021/06/05 10:59:46;;;;;;;2.77;1.63;;;24.50;99.90;;;;;;5054230;28;20384;-56
2021/06/05 11:02:40;;;;;;;2.40;1.90;;;24.40;99.90;;;;;;5053593;28;20461;-54
2021/06/05 11:05:18;;;;;;;2.10;1.70;;;24.60;99.90;;;;;;5054044;28;20397;-55
2021/06/05 11:07:46;;;;;;;4.23;2.37;;;24.10;99.90;;;;;;5054082;28;20396;-53
2021/06/05 11:10:32;;;;;;;4.60;1.80;;;24.30;99.90;;;;;;5053891;28;20712;-55
2021/06/05 11:12:58;;;;;;;2.40;2.00;;;24.30;99.90;;;;;;5053651;28;20441;-56
2021/06/05 11:15:51;;;;;;;2.60;1.60;;;24.80;99.90;;;;;;5053786;28;20434;-56
2021/06/05 11:18:46;;;;;;;1.53;1.43;;;24.70;99.90;;;;;;5053840;28;20540;-56
2021/06/05 11:21:24;;;;;;;3.00;1.80;;;25.00;99.90;;;;;;5042972;28;20444;-53
2021/06/05 11:23:56;;;;;;;2.97;1.37;;;24.80;99.90;;;;;;5053851;28;20405;-56
2021/06/05 11:26:37;;;;;;;2.10;1.70;;;25.10;99.90;;;;;;5053612;28;20488;-54
2021/06/05 11:29:20;;;;;;;1.50;1.33;;;25.10;99.90;;;;;;5054302;28;20408;-56
2021/06/05 11:31:56;;;;;;;1.70;1.40;;;25.80;99.90;;;;;;5053581;28;20453;-55
2021/06/05 11:34:31;;;;;;;2.07;1.60;;;25.90;99.90;;;;;;5052717;28;20401;-56
2021/06/05 11:37:00;;;;;;;1.63;1.40;;;25.30;99.90;;;;;;5053108;28;20959;-56
2021/06/05 11:39:26;;;;;;;1.33;1.20;;;25.70;99.90;;;;;;5053399;28;20496;-55
2021/06/05 11:42:00;;;;;;;1.27;1.17;;;25.40;99.90;;;;;;5057266;28;20519;-52
2021/06/05 11:44:38;;;;;;;2.27;1.60;;;25.20;99.90;;;;;;5073061;28;20165;-53
2021/06/05 11:47:15;;;;;;;1.57;1.30;;;25.90;99.90;;;;;;5073384;28;20830;-52
2021/06/05 11:49:42;;;;;;;2.60;1.30;;;26.10;99.90;;;;;;5071888;28;20857;-55
2021/06/05 11:52:42;;;;;;;4.00;1.37;;;26.60;99.90;;;;;;5072454;28;20439;-55
2021/06/05 11:55:38;;;;;;;1.20;1.10;;;26.50;99.90;;;;;;5004631;28;20416;-55
2021/06/05 11:58:18;;;;;;;1.30;1.20;;;26.70;99.90;;;;;;5072863;28;20452;-57
2021/06/05 12:00:47;;;;;;;1.53;1.20;;;27.30;99.90;;;;;;5072787;28;20766;-56
2021/06/05 12:03:40;;;;;;;1.30;1.20;;;26.70;99.90;;;;;;5072684;28;20746;-55
2021/06/05 12:06:13;;;;;;;1.90;1.20;;;26.50;99.90;;;;;;5073125;28;20750;-56
2021/06/05 12:08:39;;;;;;;2.13;1.53;;;25.80;99.90;;;;;;5072901;28;20384;-56
2021/06/05 12:11:18;;;;;;;2.80;1.60;;;25.60;99.90;;;;;;5072533;28;20416;-56
2021/06/05 12:13:44;;;;;;;2.03;1.27;;;25.80;99.90;;;;;;5075295;28;20177;-56
2021/06/05 12:16:15;;;;;;;1.77;1.67;;;25.60;99.90;;;;;;5072684;28;20784;-56
2021/06/05 12:18:44;;;;;;;1.60;1.50;;;25.40;99.90;;;;;;5072633;28;20407;-56
2021/06/05 12:21:28;;;;;;;2.27;1.63;;;25.40;99.90;;;;;;5072545;28;20438;-56
2021/06/05 12:23:54;;;;;;;1.63;1.53;;;24.80;99.90;;;;;;5072731;28;20424;-56
2021/06/05 12:26:23;;;;;;;2.23;2.03;;;24.80;99.90;;;;;;5072583;28;20439;-55
2021/06/05 12:29:12;;;;;;;3.10;2.10;;;25.00;99.90;;;;;;5054016;28;20412;-56
2021/06/05 12:31:42;;;;;;;2.30;1.50;;;25.20;99.90;;;;;;5072269;28;20460;-56
2021/06/05 12:34:30;;;;;;;2.30;2.10;;;25.40;99.90;;;;;;5072395;28;20472;-56
2021/06/05 12:37:06;;;;;;;1.63;1.53;;;25.70;99.90;;;;;;5072990;28;20916;-56
2021/06/05 12:39:37;;;;;;;2.20;1.43;;;26.00;99.90;;;;;;5072595;28;20376;-56
2021/06/05 12:42:04;;;;;;;4.53;2.17;;;26.10;99.90;;;;;;5072165;28;20416;-56
2021/06/05 12:44:32;;;;;;;1.93;1.50;;;25.90;99.90;;;;;;5073041;28;20794;-56
2021/06/05 12:47:02;;;;;;;3.27;1.40;;;25.90;99.90;;;;;;5076179;28;20469;-55
2021/06/05 12:49:30;;;;;;;1.80;1.67;;;26.30;99.90;;;;;;5076339;28;20406;-54
2021/06/05 12:52:01;;;;;;;2.40;1.20;;;27.50;99.90;;;;;;5076170;28;20424;-54
2021/06/05 12:54:44;;;;;;;1.43;0.87;;;28.30;99.90;;;;;;5076615;28;20502;-56
2021/06/05 12:57:37;;;;;;;1.73;1.30;;;30.30;98.20;;;;;;5076175;28;20440;-55
2021/06/05 13:00:37;;;;;;;2.47;0.70;;;29.80;97.40;;;;;;5076622;28;20910;-55
2021/06/05 13:03:05;;;;;;;1.00;0.77;;;31.30;94.70;;;;;;5033354;28;20777;-56
2021/06/05 13:05:32;;;;;;;1.20;1.10;;;31.60;92.50;;;;;;5076249;28;20503;-57